Tifton, Georgia
Current Conditions -  °F | °C
As of 11:15 AM on Sunday 25 Jan 2015 (Local Time) from KTMA Reporting Station
Clear Clear  
Wind Chill: 11°   Ceiling: Unl
Heat Index: 11°   Visibility: 10mi
Dew Point:   Wind: 5mph
Humidity: 47%   Direction: 240°WSW
Pressure: 30.03"   Gusts: NA
Location:  31.45°N, 83.51°W
Report Text: KTMA 251615Z AUTO 24004KT 10SM CLR 11/00 A3003 RMK AO2
Loading
Personal Weather Stations






























Interactive Weather Map New forecast layout! Learn more

10-Day Weather Forecast

Advertisements
Track Severe Weather on mobile